Pagrindinis puslapis
METAR-TAF:

METAR-TAF

Oro uostai :

Lečė, Italija

platuma: 40-14N, ilguma: 018-09E, Aukštis: 48 m

Dabartinis oras

Ataskaita buvo paskelbta 31 minutes, ne 18:55 UTC
Ramus vėjas
Temperatūra 16°C
Drėgmė 94%
Slėgis 1015 hPa
Matomumas 10 km arba daugiau
Išsisklaidę debesys ne aukštis 3500 ft

METAR: LIBN 301855Z 00000KT 9999 SCT035 16/15 Q1015 RMK BKN SCT070 BKN100 VIS MIN 9999 WIND THR14 00000KT WIND THR32 00000KT BLU

Laikas: 21:26 (19:26 UTC)

Prognozė

Ataskaita buvo paskelbta 29 valandos ir 26 minutes, ne 14:00 UTC
Prognozė galioja nuo 29 metu 15 UTC su 29 metu 24 UTC
Vėjas 7 kt iš Šiaurės Vakarų
Matomumas 10 km arba daugiau
Išsisklaidę debesys ne aukštis 2000 ft

TAF: LIBN 291400Z 2915/2924 31007KT 9999 SCT020

Orai ataskaitas ir orų prognozės (METAR, TAF).

turimą stotys yra geltonos ir raudonos taškus žemėlapyje.

Perkelti pele per norėdami pamatyti stoties vardą.

Tada spustelėkite, norėdami matyti oro stebėjimo ir prognozės.

Norėdami pakeisti žemėlapį: spustelėkite ant žalios mygtukų su juodo kryžiaus žemyn,; žalią mygtuką su brūkšneliu, jei norite nutolinti; arba žalių rodyklių gretimoms žemėlapius.


METAR-TAF: